Strona główna
METAR-TAF:

METAR-TAF

Lotnisko :

Port lotniczy Walencja

Walencja, Hiszpania

Szerokość geograficzna: 39-30N, Długość geograficzna: 000-28W, wysokość: 69 m

Aktualna obserwacja pogody

Raport powstał 29 minut temu, godzina 23:00 UTC
Wiatr 1 kt od zachód
Temperatura 24°C
Wilgotność 89%
Ciśnienie 1022 hPa
Widzialność 10 km lub więcej
Brak chmur poniżej 1500 m i brak chmur cumulonimbus

METAR: LEVC 222300Z 26001KT CAVOK 24/22 Q1022 NOSIG

czas: 01:29 (23:29 UTC)

Prognoza

Raport powstał 6 godziny i 29 minut temu, godzina 17:00 UTC
Prognoza ważna od 22 godzina 18 UTC do 23 godzina 18 UTC
Wiatr 7 kt od północny wschód
Widzialność 10 km lub więcej
Mało chmury na wysokości 2500 ft
Stopniowe zmiany
od 22 godzina 20 UTC do 22 godzina 22 UTC
Wiatr 3 kt z kierunków zmiennych
Stopniowe zmiany
od 23 godzina 10 UTC do 23 godzina 12 UTC
Wiatr 10 kt od wschodnio-południowy wschód

TAF: LEVC 221700Z 2218/2318 05007KT 9999 FEW025 TX32/2312Z TN21/2306Z BECMG 2220/2222 VRB03KT BECMG 2310/2312 11010KT

Obserwacja i prognoza pogody dla ponad 4000 lotnisk (raport METAR i TAF).

Dostępne stacje oznaczono żółtymi i czerwonymi punktami na mapie.

Najedź kursorem aby zobaczyć nazwę stacji.

Kliknij aby zobaczyć obserwacje i prognozy pogody.

Aby zmienić mapę: kliknij na zielony przycisk z czarnym krzyżykiem, aby powiększyć; na zielony przycisk z myślnikiem, aby pomniejszyć; na zielone strzałki, aby przejść do map sąsiednich.


METAR-TAF: